Pasadena, MD (21122)

2:32 AM EST on January 29, 2015 (GMT -0500)
K3BAY-Fairview Beach | Change Station
CLOSE
Current Station
Personal Weather Station
Location: Pasadena, MD
Elevation: 0 ft
Nearby Weather Stations

Elev 0 ft 39.15 °N, 76.50 °W | Updated 43 days ago

Clear
Clear
23 °F
Feels Like 23 °F
N
4
Wind Variable Wind from NNW
Gusts 8 mph

Today
High -- | Low -- °F
--% Chance of Precip.
Yesterday
High -- | Low -- °F
Precip. -- in
7:15 AM 5:23 PM
Waxing Gibbous, 72% visible
Pressure 30.33 in
Visibility 10.0 miles
Clouds Clear
Dew Point 14 °F
Humidity 66%
Rainfall 0.00 in
Snow Depth Not available.
UV 0 out of 12
Pollen .10 out of 12
Air Quality Not available.
Flu Activity Not available.
METAR KBWI 290654Z 27003KT 10SM CLR M06/M14 A3032 RMK AO2 SLP270 T10561139

More Conditions Fewer Conditions

Pressure 30.33 in
Visibility 10.0 miles
Clouds Clear
Dew Point 14 °F
Humidity 66%
Rainfall 0.00 in
Snow Depth Not available.
UV 0 out of 12
Pollen .10 out of 12
Air Quality Not available.
Flu Activity Not available.
METAR KBWI 290654Z 27003KT 10SM CLR M06/M14 A3032 RMK AO2 SLP270 T10561139

More Conditions Fewer Conditions

10-Day Weather Forecast

Almanac

Astronomy

Jan. 29, 2015 Rise Set
Actual Time
Civil Twilight
Nautical Twilight
Astronomical Twilight
Moon
Length of Visible Light
Length of Day
Tomorrow will be .
, % of the Moon is Illuminated

Today's Extremes

State Highs State Lows

Community

WunderPhotos

Upload Photos

1,791,387 photos uploaded!

WunderBlogs® & News

Nearby

Air Quality

  Air Quality AQ Index Pollutant
Not available.

Snow Depth

Station Depth Elevation

Earthquake Activity

City Distance Mag. Time & Date
Minimum magnitude displayed is 2.5.

Coastal Water Temperatures

Place Temperature

Nearby Weather Stations